createdAt,value
2019-03-23T00:01:38.598Z,88.40
2019-03-23T00:04:10.734Z,88.30
2019-03-23T00:06:42.430Z,88.30
2019-03-23T00:09:12.296Z,88.10
2019-03-23T00:11:43.297Z,88.10
2019-03-23T00:14:17.125Z,87.80
2019-03-23T00:16:47.106Z,87.60
2019-03-23T00:19:18.286Z,87.60
2019-03-23T00:21:48.853Z,87.80
2019-03-23T00:24:20.200Z,87.80
2019-03-23T00:26:51.560Z,87.90
2019-03-23T00:29:21.454Z,87.70
2019-03-23T00:31:53.747Z,87.70
2019-03-23T00:34:26.233Z,87.80
2019-03-23T00:36:57.173Z,87.90
2019-03-23T00:39:29.591Z,87.90
2019-03-23T00:42:00.607Z,87.90
2019-03-23T00:44:31.673Z,87.90
2019-03-23T00:47:04.537Z,87.70
2019-03-23T00:49:35.529Z,87.60
2019-03-23T00:52:06.650Z,87.90
2019-03-23T00:54:37.678Z,87.90
2019-03-23T00:57:08.614Z,88.00
2019-03-23T00:59:39.576Z,88.00
2019-03-23T01:02:09.380Z,88.20
2019-03-23T01:04:39.408Z,88.20
2019-03-23T01:07:09.462Z,88.20
2019-03-23T01:09:39.450Z,88.10
2019-03-23T01:12:11.652Z,88.30
2019-03-23T01:14:42.647Z,88.40
2019-03-23T01:17:15.137Z,88.40
2019-03-23T01:19:47.560Z,88.40
2019-03-23T01:22:19.187Z,88.40
2019-03-23T01:24:50.423Z,88.20
2019-03-23T01:27:20.338Z,88.20
2019-03-23T01:29:51.461Z,88.10
2019-03-23T01:32:22.490Z,88.20
2019-03-23T01:34:53.863Z,88.30
2019-03-23T01:37:25.024Z,88.30
2019-03-23T01:39:57.679Z,88.50
2019-03-23T01:42:28.651Z,88.60
2019-03-23T01:45:01.016Z,88.70
2019-03-23T01:47:32.701Z,88.70
2019-03-23T01:50:02.622Z,88.50
2019-03-23T01:52:35.499Z,88.80
2019-03-23T01:55:12.322Z,88.80
2019-03-23T01:57:45.289Z,89.10
2019-03-23T02:00:17.224Z,89.30
2019-03-23T02:02:49.538Z,89.50
2019-03-23T02:05:20.514Z,89.50
2019-03-23T02:07:50.411Z,89.90
2019-03-23T02:10:21.347Z,89.70
2019-03-23T02:12:53.555Z,89.80
2019-03-23T02:15:23.512Z,90.00
2019-03-23T02:18:15.265Z,90.20
2019-03-23T02:20:47.495Z,90.20
2019-03-23T02:23:18.849Z,90.50
2019-03-23T02:25:49.055Z,91.00
2019-03-23T02:28:18.932Z,90.90
2019-03-23T02:30:49.803Z,91.20
2019-03-23T02:33:20.915Z,91.00
2019-03-23T02:35:55.063Z,90.90
2019-03-23T02:38:29.219Z,91.40
2019-03-23T02:41:01.423Z,91.50
2019-03-23T02:43:34.081Z,91.40
2019-03-23T02:46:06.545Z,91.70
2019-03-23T02:48:39.690Z,91.90
2019-03-23T02:51:11.109Z,91.70
2019-03-23T02:53:42.189Z,91.60
2019-03-23T02:56:14.476Z,91.80
2019-03-23T02:58:45.533Z,91.80
2019-03-23T03:01:19.647Z,91.80
2019-03-23T03:03:53.421Z,91.80
2019-03-23T03:06:24.643Z,91.90
2019-03-23T03:08:56.204Z,91.80
2019-03-23T03:11:26.192Z,91.80
2019-03-23T03:13:56.028Z,92.00
2019-03-23T03:16:25.832Z,92.00
2019-03-23T03:18:58.036Z,92.00
2019-03-23T03:21:27.875Z,92.00
2019-03-23T03:23:58.663Z,92.00
2019-03-23T03:26:28.709Z,92.00
2019-03-23T03:29:01.818Z,92.00
2019-03-23T03:31:51.709Z,92.20
2019-03-23T03:34:24.973Z,92.10
2019-03-23T03:36:57.289Z,92.00
2019-03-23T03:39:27.209Z,92.00
2019-03-23T03:41:58.525Z,92.00
2019-03-23T03:44:29.499Z,92.20
2019-03-23T03:46:58.810Z,92.10
2019-03-23T03:49:28.805Z,92.20
2019-03-23T03:52:01.394Z,92.20
2019-03-23T03:54:32.861Z,92.20
2019-03-23T03:57:04.128Z,92.20
2019-03-23T03:59:35.225Z,92.20
2019-03-23T04:02:25.587Z,92.20
2019-03-23T04:04:56.752Z,92.20
2019-03-23T04:07:30.056Z,92.10
2019-03-23T04:10:04.667Z,92.00
2019-03-23T04:12:35.839Z,91.70
2019-03-23T04:15:09.661Z,91.80
2019-03-23T04:17:39.770Z,92.20
2019-03-23T04:20:10.854Z,92.10
2019-03-23T04:22:44.787Z,92.00
2019-03-23T04:25:14.881Z,92.00
2019-03-23T04:27:46.417Z,91.80
2019-03-23T04:30:18.659Z,91.70
2019-03-23T04:32:50.979Z,91.70
2019-03-23T04:35:24.642Z,91.80
2019-03-23T04:37:56.027Z,91.90
2019-03-23T04:40:26.651Z,91.90
2019-03-23T04:42:56.569Z,91.80
2019-03-23T04:45:26.382Z,92.00
2019-03-23T04:48:18.112Z,92.00
2019-03-23T04:50:51.019Z,92.00
2019-03-23T04:53:23.570Z,91.90
2019-03-23T04:55:56.062Z,92.00
2019-03-23T04:58:27.353Z,91.80
2019-03-23T05:00:58.917Z,91.90
2019-03-23T05:03:31.202Z,92.00
2019-03-23T05:06:02.416Z,91.90
2019-03-23T05:08:34.143Z,91.90
2019-03-23T05:11:07.166Z,91.90
2019-03-23T05:13:39.328Z,91.90
2019-03-23T05:16:15.109Z,91.80
2019-03-23T05:18:45.842Z,91.80
2019-03-23T05:21:18.184Z,91.60
2019-03-23T05:23:51.783Z,91.50
2019-03-23T05:26:24.881Z,91.90
2019-03-23T05:28:55.441Z,91.70
2019-03-23T05:31:25.499Z,91.20
2019-03-23T05:33:57.578Z,91.40
2019-03-23T05:36:32.382Z,91.00
2019-03-23T05:39:03.313Z,91.00
2019-03-23T05:41:34.874Z,91.10
2019-03-23T05:44:07.437Z,91.40
2019-03-23T05:46:37.538Z,91.20
2019-03-23T05:49:07.982Z,91.20
2019-03-23T05:51:37.368Z,90.90
2019-03-23T05:54:11.836Z,90.80
2019-03-23T05:56:44.279Z,90.80
2019-03-23T05:59:16.386Z,91.40
2019-03-23T06:01:47.346Z,92.20
2019-03-23T06:04:17.357Z,92.20
2019-03-23T06:06:49.823Z,92.20
2019-03-23T06:09:24.289Z,92.20
2019-03-23T06:11:55.669Z,92.20
2019-03-23T06:14:28.319Z,92.20
2019-03-23T06:17:01.669Z,91.80
2019-03-23T06:19:32.707Z,91.30
2019-03-23T06:22:03.898Z,90.90
2019-03-23T06:24:36.275Z,90.20
2019-03-23T06:27:06.907Z,89.90
2019-03-23T06:29:39.615Z,89.40
2019-03-23T06:32:12.152Z,89.00
2019-03-23T06:34:43.123Z,88.60
2019-03-23T06:37:14.710Z,88.30
2019-03-23T06:39:47.227Z,88.00
2019-03-23T06:42:18.128Z,87.30
2019-03-23T06:44:48.084Z,87.00
2019-03-23T06:47:19.624Z,85.80
2019-03-23T06:49:54.713Z,85.80
2019-03-23T06:52:26.955Z,85.20
2019-03-23T06:54:58.172Z,85.00
2019-03-23T06:57:29.122Z,83.70
2019-03-23T07:00:00.060Z,83.50
2019-03-23T07:02:33.056Z,82.10
2019-03-23T07:05:03.702Z,82.00
2019-03-23T07:07:35.033Z,81.30
2019-03-23T07:10:09.443Z,80.30
2019-03-23T07:12:43.217Z,79.90
2019-03-23T07:15:20.411Z,80.50
2019-03-23T07:17:52.826Z,80.30
2019-03-23T07:20:25.094Z,79.00
2019-03-23T07:22:55.921Z,78.30
2019-03-23T07:25:26.126Z,78.60
2019-03-23T07:27:57.529Z,79.20
2019-03-23T07:30:27.429Z,79.30
2019-03-23T07:32:58.610Z,80.00
2019-03-23T07:35:28.415Z,80.40
2019-03-23T07:37:59.365Z,78.80
2019-03-23T07:40:31.228Z,78.40
2019-03-23T07:43:04.626Z,76.20
2019-03-23T07:45:37.184Z,74.70
2019-03-23T07:48:07.200Z,73.80
2019-03-23T07:50:38.203Z,73.00
2019-03-23T07:53:09.277Z,72.90
2019-03-23T07:55:42.304Z,70.90
2019-03-23T07:58:34.059Z,70.30
2019-03-23T08:01:05.207Z,70.40
2019-03-23T08:06:08.497Z,68.90
2019-03-23T08:08:42.350Z,68.20
2019-03-23T08:11:14.297Z,67.10
2019-03-23T08:13:47.119Z,67.20
2019-03-23T08:16:19.550Z,66.20
2019-03-23T08:18:53.962Z,65.90
2019-03-23T08:21:24.330Z,65.80
2019-03-23T08:23:55.307Z,65.20
2019-03-23T08:26:25.248Z,64.10
2019-03-23T08:28:56.308Z,63.20
2019-03-23T08:31:27.969Z,62.90
2019-03-23T08:34:01.902Z,62.80
2019-03-23T08:36:32.206Z,62.00
2019-03-23T08:39:04.667Z,61.40
2019-03-23T08:41:37.136Z,60.50
2019-03-23T08:44:08.071Z,60.30
2019-03-23T08:46:40.628Z,60.60
2019-03-23T08:49:14.867Z,59.30
2019-03-23T08:51:47.500Z,59.00
2019-03-23T08:54:19.922Z,58.80
2019-03-23T08:56:52.300Z,58.10
2019-03-23T08:59:22.402Z,59.00
2019-03-23T09:01:54.804Z,58.30
2019-03-23T09:04:25.961Z,58.70
2019-03-23T09:06:59.330Z,58.60
2019-03-23T09:09:32.404Z,59.60
2019-03-23T09:12:07.032Z,60.00
2019-03-23T09:14:38.406Z,60.20
2019-03-23T09:17:08.545Z,59.60
2019-03-23T09:19:39.891Z,60.70
2019-03-23T09:22:10.576Z,61.10
2019-03-23T09:24:46.322Z,61.20
2019-03-23T09:27:19.065Z,61.00
2019-03-23T09:29:49.146Z,60.40
2019-03-23T09:32:23.181Z,59.80
2019-03-23T09:34:55.035Z,59.40
2019-03-23T09:37:27.591Z,59.30
2019-03-23T09:40:09.865Z,59.70
2019-03-23T09:42:30.412Z,59.80
2019-03-23T09:45:01.719Z,60.10
2019-03-23T09:47:35.815Z,59.80
2019-03-23T09:50:07.552Z,59.50
2019-03-23T09:52:38.323Z,57.70
2019-03-23T09:55:10.736Z,57.50
2019-03-23T09:57:40.952Z,58.10
2019-03-23T10:00:14.851Z,57.90
2019-03-23T10:02:47.676Z,56.30
2019-03-23T10:05:20.248Z,55.10
2019-03-23T10:07:53.161Z,54.50
2019-03-23T10:10:25.817Z,53.90
2019-03-23T10:12:57.317Z,53.00
2019-03-23T10:15:30.068Z,52.60
2019-03-23T10:18:02.830Z,53.30
2019-03-23T10:20:35.669Z,52.10
2019-03-23T10:23:07.011Z,51.70
2019-03-23T10:25:38.453Z,52.80
2019-03-23T10:28:10.965Z,52.10
2019-03-23T10:30:44.286Z,52.00
2019-03-23T10:33:15.822Z,53.20
2019-03-23T10:35:49.501Z,52.10
2019-03-23T10:38:20.504Z,50.40
2019-03-23T10:40:53.507Z,51.20
2019-03-23T10:43:23.632Z,53.00
2019-03-23T10:45:54.934Z,54.70
2019-03-23T10:48:28.167Z,51.70
2019-03-23T10:51:00.722Z,52.50
2019-03-23T10:53:32.218Z,51.00
2019-03-23T10:56:03.453Z,52.50
2019-03-23T11:01:08.970Z,50.30
2019-03-23T11:03:41.633Z,48.40
2019-03-23T11:06:16.369Z,48.80
2019-03-23T11:08:55.897Z,48.70
2019-03-23T11:11:27.627Z,46.40
2019-03-23T11:14:01.486Z,46.60
2019-03-23T11:16:32.239Z,47.30
2019-03-23T11:19:13.210Z,46.90
2019-03-23T11:21:39.357Z,45.20
2019-03-23T11:24:10.678Z,45.90
2019-03-23T11:26:41.562Z,44.90
2019-03-23T11:29:12.563Z,44.50
2019-03-23T11:31:46.443Z,47.20
2019-03-23T11:34:18.007Z,46.30
2019-03-23T11:36:49.147Z,46.00
2019-03-23T11:39:20.572Z,44.40
2019-03-23T11:41:53.805Z,44.30
2019-03-23T11:44:25.817Z,43.00
2019-03-23T11:46:55.660Z,43.60
2019-03-23T11:49:28.685Z,44.10
2019-03-23T11:52:00.140Z,44.30
2019-03-23T11:54:32.796Z,43.70
2019-03-23T11:57:05.446Z,42.90
2019-03-23T11:59:36.650Z,43.60
2019-03-23T12:02:06.738Z,44.40
2019-03-23T12:04:37.491Z,44.90
2019-03-23T12:07:07.555Z,44.10
2019-03-23T12:09:38.518Z,44.40
2019-03-23T12:12:12.539Z,44.10
2019-03-23T12:14:44.185Z,44.00
2019-03-23T12:17:18.447Z,43.60
2019-03-23T12:19:49.889Z,43.30
2019-03-23T12:22:22.589Z,43.50
2019-03-23T12:24:53.723Z,44.00
2019-03-23T12:27:24.777Z,44.60
2019-03-23T12:29:54.884Z,44.00
2019-03-23T12:32:24.750Z,43.90
2019-03-23T12:34:56.933Z,44.00
2019-03-23T12:37:28.261Z,44.10
2019-03-23T12:40:00.640Z,43.80
2019-03-23T12:42:32.547Z,42.60
2019-03-23T12:45:05.542Z,42.60
2019-03-23T12:47:38.206Z,42.00
2019-03-23T12:50:11.046Z,41.70
2019-03-23T12:52:45.535Z,41.30
2019-03-23T12:55:18.007Z,40.90
2019-03-23T12:57:48.177Z,40.80
2019-03-23T13:00:19.725Z,41.50
2019-03-23T13:02:52.611Z,42.30
2019-03-23T13:05:25.535Z,41.20
2019-03-23T13:08:00.156Z,41.90
2019-03-23T13:10:34.142Z,40.70
2019-03-23T13:13:08.959Z,41.10
2019-03-23T13:15:41.513Z,40.50
2019-03-23T13:18:26.721Z,40.30
2019-03-23T13:20:49.524Z,40.90
2019-03-23T13:23:20.020Z,39.80
2019-03-23T13:25:53.805Z,40.50
2019-03-23T13:28:28.013Z,40.60
2019-03-23T13:31:01.138Z,41.20
2019-03-23T13:33:32.931Z,41.80
2019-03-23T13:36:04.563Z,40.20
2019-03-23T13:38:41.028Z,40.30
2019-03-23T13:41:13.340Z,41.00
2019-03-23T13:43:49.603Z,40.30
2019-03-23T13:46:20.818Z,39.60
2019-03-23T13:48:52.831Z,39.70
2019-03-23T13:51:24.843Z,40.10
2019-03-23T13:53:54.731Z,40.20
2019-03-23T13:56:25.817Z,39.40
2019-03-23T13:58:58.295Z,39.20
2019-03-23T14:01:28.063Z,39.90
2019-03-23T14:03:57.957Z,38.70
2019-03-23T14:06:31.095Z,39.70
2019-03-23T14:09:00.870Z,39.80
2019-03-23T14:11:32.161Z,39.70
2019-03-23T14:14:03.199Z,39.60
2019-03-23T14:16:35.627Z,40.80
2019-03-23T14:19:09.045Z,40.90
2019-03-23T14:21:41.567Z,40.80
2019-03-23T14:24:12.815Z,41.30
2019-03-23T14:26:45.525Z,39.30
2019-03-23T14:29:15.579Z,38.60
2019-03-23T14:31:45.622Z,38.20
2019-03-23T14:34:19.501Z,38.50
2019-03-23T14:36:51.980Z,40.80
2019-03-23T14:39:24.520Z,40.80
2019-03-23T14:42:04.408Z,41.20
2019-03-23T14:44:46.154Z,41.60
2019-03-23T14:47:18.746Z,44.10
2019-03-23T14:49:50.323Z,43.80
2019-03-23T14:52:40.640Z,42.10
2019-03-23T14:55:11.147Z,43.60
2019-03-23T14:57:43.588Z,44.90
2019-03-23T15:00:14.987Z,44.10
2019-03-23T15:02:47.478Z,43.50
2019-03-23T15:05:19.926Z,43.70
2019-03-23T15:07:50.811Z,43.80
2019-03-23T15:10:21.867Z,43.30
2019-03-23T15:12:53.102Z,43.50
2019-03-23T15:15:25.624Z,42.40
2019-03-23T15:17:56.892Z,41.90
2019-03-23T15:20:28.293Z,42.50
2019-03-23T15:22:59.582Z,43.00
2019-03-23T15:25:34.328Z,43.10
2019-03-23T15:28:06.914Z,44.40
2019-03-23T15:30:40.361Z,44.70
2019-03-23T15:33:10.344Z,45.20
2019-03-23T15:35:41.197Z,46.60
2019-03-23T15:38:12.361Z,47.50
2019-03-23T15:40:44.926Z,46.10
2019-03-23T15:43:15.740Z,47.30
2019-03-23T15:45:48.174Z,47.90
2019-03-23T15:48:20.603Z,49.60
2019-03-23T15:50:50.811Z,50.00
2019-03-23T15:53:21.602Z,51.10
2019-03-23T15:58:45.549Z,52.80
2019-03-23T16:01:18.109Z,53.50
2019-03-23T16:03:50.419Z,53.80
2019-03-23T16:06:22.976Z,54.50
2019-03-23T16:08:54.770Z,54.90
2019-03-23T16:11:25.608Z,55.30
2019-03-23T16:13:55.510Z,55.40
2019-03-23T16:16:25.587Z,55.60
2019-03-23T16:18:58.303Z,56.20
2019-03-23T16:21:30.685Z,57.00
2019-03-23T16:24:01.988Z,57.90
2019-03-23T16:29:03.844Z,59.10
2019-03-23T16:31:38.282Z,59.70
2019-03-23T16:34:10.342Z,60.20
2019-03-23T16:36:41.502Z,60.60
2019-03-23T16:39:13.783Z,60.70
2019-03-23T16:41:47.784Z,61.00
2019-03-23T16:44:21.130Z,61.20
2019-03-23T16:46:55.841Z,61.60
2019-03-23T16:49:28.080Z,61.90
2019-03-23T16:51:58.086Z,62.50
2019-03-23T16:54:30.409Z,62.80
2019-03-23T16:57:02.883Z,63.10
2019-03-23T16:59:36.597Z,63.40
2019-03-23T17:02:07.699Z,63.90
2019-03-23T17:04:39.041Z,64.10
2019-03-23T17:07:10.616Z,64.30
2019-03-23T17:10:01.561Z,64.70
2019-03-23T17:12:32.711Z,64.90
2019-03-23T17:15:04.168Z,65.20
2019-03-23T17:17:34.210Z,65.50
2019-03-23T17:20:06.468Z,65.50
2019-03-23T17:22:38.512Z,65.80
2019-03-23T17:25:10.074Z,66.20
2019-03-23T17:27:43.322Z,67.30
2019-03-23T17:30:13.500Z,68.10
2019-03-23T17:32:46.536Z,68.70
2019-03-23T17:35:16.480Z,69.10
2019-03-23T17:37:47.914Z,69.40
2019-03-23T17:40:19.387Z,69.80
2019-03-23T17:42:50.846Z,69.80
2019-03-23T17:45:22.582Z,70.20
2019-03-23T17:47:54.021Z,70.40
2019-03-23T17:50:26.403Z,70.80
2019-03-23T17:52:56.546Z,71.00
2019-03-23T17:55:28.533Z,71.40
2019-03-23T17:58:00.482Z,71.40
2019-03-23T18:00:30.934Z,71.40
2019-03-23T18:03:01.135Z,71.40
2019-03-23T18:05:31.356Z,71.70
2019-03-23T18:08:02.402Z,72.00
2019-03-23T18:10:35.132Z,71.70
2019-03-23T18:13:16.121Z,72.20
2019-03-23T18:15:42.768Z,72.00
2019-03-23T18:18:13.876Z,72.10
2019-03-23T18:20:44.524Z,72.30
2019-03-23T18:23:19.323Z,72.80
2019-03-23T18:25:50.346Z,73.30
2019-03-23T18:28:21.455Z,73.10
2019-03-23T18:30:53.884Z,73.10
2019-03-23T18:33:43.928Z,73.20
2019-03-23T18:36:17.507Z,73.70
2019-03-23T18:38:51.720Z,73.60
2019-03-23T18:41:23.209Z,73.60
2019-03-23T18:44:02.764Z,73.60
2019-03-23T18:46:40.767Z,73.80
2019-03-23T18:49:12.861Z,74.10
2019-03-23T18:51:45.288Z,74.70
2019-03-23T18:54:17.786Z,75.10
2019-03-23T18:56:48.829Z,75.50
2019-03-23T18:59:21.133Z,75.70
2019-03-23T19:01:53.204Z,75.70
2019-03-23T19:04:27.440Z,75.80
2019-03-23T19:06:57.843Z,76.10
2019-03-23T19:09:28.747Z,76.20
2019-03-23T19:11:59.784Z,76.70
2019-03-23T19:14:29.743Z,77.00
2019-03-23T19:17:02.529Z,77.60
2019-03-23T19:19:34.804Z,77.60
2019-03-23T19:22:04.809Z,77.20
2019-03-23T19:24:35.534Z,77.40
2019-03-23T19:27:08.531Z,77.40
2019-03-23T19:29:40.926Z,77.70
2019-03-23T19:32:14.070Z,78.10
2019-03-23T19:34:44.256Z,78.60
2019-03-23T19:37:15.942Z,79.50
2019-03-23T19:39:50.718Z,80.00
2019-03-23T19:42:25.010Z,79.60
2019-03-23T19:45:03.854Z,79.50
2019-03-23T19:47:34.830Z,78.80
2019-03-23T19:50:17.147Z,78.60
2019-03-23T19:52:51.198Z,79.60
2019-03-23T19:55:21.230Z,79.40
2019-03-23T19:57:54.702Z,79.80
2019-03-23T20:00:25.546Z,80.30
2019-03-23T20:02:56.628Z,80.40
2019-03-23T20:05:28.936Z,80.00
2019-03-23T20:08:05.375Z,80.10
2019-03-23T20:10:35.152Z,79.90
2019-03-23T20:13:05.257Z,80.60
2019-03-23T20:15:37.750Z,80.90
2019-03-23T20:18:09.083Z,81.00
2019-03-23T20:20:40.141Z,81.30
2019-03-23T20:23:10.500Z,81.00
2019-03-23T20:25:42.621Z,80.30
2019-03-23T20:28:13.891Z,80.60
2019-03-23T20:30:46.560Z,80.70
2019-03-23T20:33:19.636Z,81.40
2019-03-23T20:35:49.172Z,82.10
2019-03-23T20:38:20.106Z,82.20
2019-03-23T20:40:53.735Z,81.90
2019-03-23T20:43:24.485Z,81.80
2019-03-23T20:45:56.959Z,81.10
2019-03-23T20:48:28.176Z,81.10
2019-03-23T20:50:58.198Z,81.40
2019-03-23T20:53:30.792Z,82.10
2019-03-23T20:56:00.651Z,81.70
2019-03-23T20:58:31.916Z,81.70
2019-03-23T21:01:03.081Z,81.10
2019-03-23T21:03:37.427Z,81.80
2019-03-23T21:06:08.876Z,82.80
2019-03-23T21:08:39.914Z,82.80
2019-03-23T21:11:10.469Z,83.00
2019-03-23T21:13:41.986Z,83.70
2019-03-23T21:16:11.826Z,83.00
2019-03-23T21:18:42.946Z,82.50
2019-03-23T21:21:14.234Z,82.20
2019-03-23T21:23:45.637Z,81.60
2019-03-23T21:26:17.770Z,81.30
2019-03-23T21:28:48.855Z,81.10
2019-03-23T21:31:18.759Z,80.90
2019-03-23T21:33:49.835Z,80.80
2019-03-23T21:36:21.127Z,80.70
2019-03-23T21:38:51.997Z,80.90
2019-03-23T21:41:23.787Z,81.10
2019-03-23T21:43:55.040Z,81.50
2019-03-23T21:46:24.797Z,81.50
2019-03-23T21:48:57.258Z,81.70
2019-03-23T21:51:31.704Z,81.80
2019-03-23T21:54:04.602Z,81.90
2019-03-23T21:56:55.105Z,81.90
2019-03-23T21:59:27.975Z,82.00
2019-03-23T22:01:59.508Z,81.90
2019-03-23T22:04:32.115Z,81.90
2019-03-23T22:07:04.915Z,81.90
2019-03-23T22:09:37.313Z,81.80
2019-03-23T22:12:08.669Z,81.80
2019-03-23T22:14:41.905Z,81.30
2019-03-23T22:17:11.045Z,80.60
2019-03-23T22:19:40.992Z,80.30
2019-03-23T22:22:13.061Z,80.40
2019-03-23T22:24:45.720Z,79.90
2019-03-23T22:27:19.263Z,79.10
2019-03-23T22:29:52.254Z,79.00
2019-03-23T22:32:26.641Z,79.00
2019-03-23T22:34:58.078Z,78.90
2019-03-23T22:37:28.801Z,78.60
2019-03-23T22:40:01.697Z,78.60
2019-03-23T22:42:34.789Z,79.00
2019-03-23T22:45:08.851Z,79.40
2019-03-23T22:47:40.043Z,79.60
2019-03-23T22:50:12.389Z,79.90
2019-03-23T22:52:46.771Z,80.20
2019-03-23T22:55:17.911Z,80.10
2019-03-23T22:57:49.121Z,80.20
2019-03-23T23:00:29.567Z,80.20
2019-03-23T23:03:00.682Z,80.20
2019-03-23T23:05:31.356Z,80.20
2019-03-23T23:08:00.765Z,80.20
2019-03-23T23:10:33.608Z,80.20
2019-03-23T23:13:05.882Z,80.60
2019-03-23T23:15:35.833Z,80.70
2019-03-23T23:18:06.012Z,80.90
2019-03-23T23:20:38.073Z,81.30
2019-03-23T23:23:10.632Z,81.30
2019-03-23T23:25:43.633Z,81.40
2019-03-23T23:28:14.118Z,81.40
2019-03-23T23:30:44.042Z,81.40
2019-03-23T23:33:15.104Z,81.50
2019-03-23T23:35:46.189Z,81.50
2019-03-23T23:38:18.559Z,81.60
2019-03-23T23:40:53.084Z,81.50
2019-03-23T23:43:24.152Z,81.80
2019-03-23T23:45:57.700Z,81.90
2019-03-23T23:48:27.126Z,81.90
2019-03-23T23:51:00.552Z,82.00
2019-03-23T23:53:31.507Z,82.20
2019-03-23T23:56:01.467Z,82.30
2019-03-23T23:58:32.338Z,82.50
